KLWS/LWS METAR and TAF weather

Enter ICAO airport designator
Station Type Date Time Source
KLWS METAR 2020/01/20 12:56 UTC NOAA

KLWS 201256Z AUTO 06008KT 10SM CLR 04/M02 A3011 RMK AO2 SLP208 T00391017


Station Type Date Time Source
KLWS Decoded METAR 2020/01/20 12:56 UTC NOAA

LEWISTON NEZ PERCE CO AIRPORT , ID, United States (KLWS) 46-22N 117-01W 438M
Jan 20, 2020 - 07:56 AM EST / 2020.01.20 1256 UTC
Wind: from the ENE (060 degrees) at 9 MPH (8 KT):0
Visibility: 10 mile(s):0
Sky conditions: clear
Temperature: 39.0 F (3.9 C)
Dew Point: 28.9 F (-1.7 C)
Relative Humidity: 66%
Pressure (altimeter): 30.11 in. Hg (1019 hPa)
ob: KLWS 201256Z AUTO 06008KT 10SM CLR 04/M02 A3011 RMK AO2 SLP208 T00391017
cycle: 13

Station Type Date Time Source
KLWS TAF 2020/01/20 12:42 UTC NOAA

TAF KLWS 201139Z 2012/2112 09007KT P6SM OVC150
FM202000 12006KT P6SM OVC100

Example: see airport list